Аэропорт: Брест-2. Брест

ICAO: UMBB

METAR:
Информация по данной станции не доступна
METAR:
2020-10-19 14:00:00
TAF UMBB 191400Z 1915/1924 26005MPS 6000 SCT020 TEMPO 1915/1921 28005G10MPS 3000 -SHRA BR BKN007 SCT016CB